Rechercher aéroport 
image banner adimage banner adimage banner ad
image banner ad

CL66 - Camp 2

Situé à La Canada, United States

ICAO - CL66, IATA -

Données fournies par Airmate  

Information générale

Coordonnées: N34°11'50" W118°10'26"
Élévation : 1120 feet MSL.
Variation magnétique : 14° East
Voir autres Aéroports à California

Données opérationnelles

Special qualification required
Heure actuelle UTC:
Heure actuelle locale:
Météo à : KBUR - Bob Hope ( 17 km )
METAR: KBUR 020553Z 11004KT 10SM CLR 24/12 A3003 RMK AO2 SLP153 T02390122 10311 20239 51011 $
TAF: KBUR 020533Z 0206/0306 VRB03KT P6SM SKC FM022000 17010KT P6SM SKC FM030200 12006KT P6SM SKC
Voir NOTAMs / SUP AIP / TFR affectant cet aéroport [VIEW]
Fréquences de communication: [VIEW]

Pistes:

Coordonnées de l'aéroport

Adresse: La Canada United States

Vue satellite de CL66